CheckWX is a tool to help pilots better visualize weather data.  It is not intended as a substitute for an official pre-flight weather briefing.

08:13:59 UTC

KABE METAR
Lehigh Valley International Airport
Allentown, Pennsylvania, USA
Current

23 mins ago

KABE 060751Z AUTO 26004KT 10SM CLR 01/M06 A3013 RMK AO2 SLP207 T00061056
Observed
Dec-6 @ 07:51 UTC
Wind
  • 260° at 4 KTS
Visibility
10 SM
Flight Rules
VFR
Cloud Levels
  • Clear skies
Temperature
C / 34°F
Dewpoint
-6°C / 21°F
Humidity
60%
Altimeter
30.13" Hg
Pressure
1020.32 hPa
Previous

1 hour ago

KABE 060651Z 24004KT 10SM CLR 01/M06 A3013 RMK AO2 SLP208 T00111061
Observed
Dec-6 @ 06:51 UTC
Wind
  • 240° at 4 KTS
Visibility
10 SM
Flight Rules
VFR
Cloud Levels
  • Clear skies
Temperature
C / 34°F
Dewpoint
-6°C / 21°F
Humidity
60%
Altimeter
30.13" Hg
Pressure
1020.32 hPa
Previous

2 hours ago

KABE 060551Z 25004KT 10SM BKN042 02/M06 A3012 RMK AO2 SLP204 T00171061 10044 20017 51015
Observed
Dec-6 @ 05:51 UTC
Wind
  • 250° at 4 KTS
Visibility
10 SM
Flight Rules
VFR
Cloud Levels
  • Broken at 4,200' AGL
Temperature
C / 36°F
Dewpoint
-6°C / 21°F
Humidity
56%
Altimeter
30.12" Hg
Pressure
1020.02 hPa